KEED/EED METAR and TAF weather

Enter ICAO airport designator
Station Type Date Time Source
KEED METAR 2021/09/24 02:56 UTC NOAA

KEED 240256Z AUTO 18007KT 10SM CLR 33/10 A2982 RMK AO2 SLP065 T03330100 53007


Station Type Date Time Source
KEED Decoded METAR 2021/09/24 02:56 UTC NOAA

NEEDLES AIRPORT, CA, United States (KEED) 34-46N 114-37W
Sep 23, 2021 - 10:56 PM EDT / 2021.09.24 0256 UTC
Wind: from the S (180 degrees) at 8 MPH (7 KT):0
Visibility: 10 mile(s):0
Sky conditions: clear
Temperature: 91.9 F (33.3 C)
Dew Point: 50.0 F (10.0 C)
Relative Humidity: 23%
Pressure (altimeter): 29.82 in. Hg (1009 hPa)
Pressure tendency: 0.02 inches (0.7 hPa) higher than three hours ago
ob: KEED 240256Z AUTO 18007KT 10SM CLR 33/10 A2982 RMK AO2 SLP065 T03330100 53007
cycle: 3

Station Type Date Time Source
KEED TAF 2021/09/23 18:30 UTC NOAA

TAF KEED 231729Z 2318/2418 VRB05KT P6SM SCT250
FM232100 21008KT P6SM FEW250
FM240800 VRB06KT P6SM FEW250

Example: see airport list